San Francisco, California
Traffic Map
Current Weather Conditions
San Francisco, California
Scattered Clouds
Scattered Clouds
64°
Feels Like: 64°
Wind Chill: 64° Ceiling: Unl
Heat Index: 64° Visibility: 10mi
Dew Point: 49° Wind: 0mph
Humidity: 58% Direction: ° ()
Pressure: 30.37in Gusts: 0mph
Raw Report DataKSFO 252256Z 00000KT 10SM SCT200 18/09 A3037 RMK AO2 SLP283 T01780094
Traffic Incident Summary
Active as of:
Severity:
Category:
InformationThere was an issue retrieving the traffic information for this location. Please try a different location or try again shortly.
Advertisements
Track Severe Weather on mobile